createdAt,value
2023-04-16T00:04:26.363Z,12.27
2023-04-16T00:09:27.951Z,12.68
2023-04-16T00:14:29.802Z,11.30
2023-04-16T00:19:31.265Z,10.48
2023-04-16T00:24:32.742Z,11.68
2023-04-16T00:29:34.814Z,11.40
2023-04-16T00:34:36.267Z,11.82
2023-04-16T00:39:37.807Z,11.10
2023-04-16T00:44:39.302Z,12.30
2023-04-16T00:49:40.895Z,11.57
2023-04-16T00:54:42.379Z,10.52
2023-04-16T00:59:43.837Z,12.05
2023-04-16T01:04:45.319Z,12.90
2023-04-16T01:09:46.807Z,11.07
2023-04-16T01:14:48.385Z,11.35
2023-04-16T01:19:49.875Z,11.38
2023-04-16T01:24:51.357Z,11.40
2023-04-16T01:29:52.850Z,11.88
2023-04-16T01:34:54.324Z,11.98
2023-04-16T01:39:56.030Z,12.05
2023-04-16T01:44:57.633Z,11.85
2023-04-16T01:49:59.624Z,12.77
2023-04-16T01:55:01.084Z,12.52
2023-04-16T02:00:03.361Z,14.68
2023-04-16T02:05:05.350Z,13.40
2023-04-16T02:10:08.078Z,13.40
2023-04-16T02:15:10.011Z,12.68
2023-04-16T02:20:11.820Z,13.20
2023-04-16T02:25:14.237Z,12.95
2023-04-16T02:30:15.732Z,12.50
2023-04-16T02:35:17.207Z,14.18
2023-04-16T02:40:18.667Z,13.73
2023-04-16T02:45:20.871Z,14.88
2023-04-16T02:50:22.426Z,14.07
2023-04-16T02:55:23.905Z,13.90
2023-04-16T03:00:25.599Z,15.00
2023-04-16T03:05:27.103Z,15.55
2023-04-16T03:10:28.605Z,13.90
2023-04-16T03:15:30.786Z,15.70
2023-04-16T03:20:32.293Z,15.00
2023-04-16T03:25:33.778Z,15.90
2023-04-16T03:30:35.405Z,15.98
2023-04-16T03:35:36.857Z,15.32
2023-04-16T03:40:39.000Z,14.23
2023-04-16T03:45:46.860Z,15.52
2023-04-16T03:50:48.471Z,16.92
2023-04-16T03:55:53.474Z,15.95
2023-04-16T04:00:55.445Z,15.32
2023-04-16T04:05:56.924Z,17.20
2023-04-16T04:10:58.381Z,15.07
2023-04-16T04:15:59.925Z,14.80
2023-04-16T04:21:07.966Z,15.23
2023-04-16T04:26:09.504Z,14.77
2023-04-16T04:31:11.087Z,13.80
2023-04-16T04:36:12.552Z,16.42
2023-04-16T04:41:14.012Z,14.27
2023-04-16T04:46:15.673Z,15.77
2023-04-16T04:51:17.149Z,14.80
2023-04-16T04:56:18.614Z,14.75
2023-04-16T05:01:20.323Z,15.23
2023-04-16T05:06:21.819Z,15.60
2023-04-16T05:11:23.302Z,14.20
2023-04-16T05:16:24.810Z,14.02
2023-04-16T05:21:26.453Z,13.23
2023-04-16T05:26:27.923Z,15.13
2023-04-16T05:31:29.392Z,13.77
2023-04-16T05:36:30.855Z,15.75
2023-04-16T05:41:32.317Z,15.65
2023-04-16T05:46:33.844Z,15.93
2023-04-16T05:51:35.613Z,16.02
2023-04-16T05:56:37.075Z,14.50
2023-04-16T06:01:38.561Z,17.70
2023-04-16T06:06:40.294Z,15.50
2023-04-16T06:11:42.774Z,16.95
2023-04-16T06:16:44.244Z,16.58
2023-04-16T06:21:45.873Z,16.60
2023-04-16T06:26:47.347Z,19.20
2023-04-16T06:31:49.113Z,19.60
2023-04-16T06:36:50.644Z,16.60
2023-04-16T06:41:52.124Z,17.02
2023-04-16T06:46:53.631Z,18.60
2023-04-16T06:51:55.116Z,19.40
2023-04-16T06:56:56.573Z,19.65
2023-04-16T07:01:58.140Z,17.95
2023-04-16T07:06:59.766Z,16.60
2023-04-16T07:12:01.228Z,16.45
2023-04-16T07:17:02.682Z,21.65
2023-04-16T07:22:04.336Z,25.70
2023-04-16T07:27:05.931Z,46.47
2023-04-16T07:32:07.652Z,29.88
2023-04-16T07:37:09.229Z,35.85
2023-04-16T07:42:10.862Z,42.00
2023-04-16T07:47:12.348Z,25.20
2023-04-16T07:52:13.843Z,25.13
2023-04-16T07:57:16.453Z,34.08
2023-04-16T08:02:18.024Z,19.80
2023-04-16T08:07:19.548Z,19.67
2023-04-16T08:12:21.137Z,20.65
2023-04-16T08:17:22.787Z,18.50
2023-04-16T08:22:24.420Z,17.42
2023-04-16T08:27:25.935Z,19.40
2023-04-16T08:32:27.502Z,17.92
2023-04-16T08:37:29.004Z,18.80
2023-04-16T08:42:32.090Z,17.55
2023-04-16T08:47:34.608Z,17.88
2023-04-16T08:52:37.549Z,17.17
2023-04-16T08:57:41.121Z,17.02
2023-04-16T09:02:42.904Z,17.55
2023-04-16T09:07:47.810Z,18.10
2023-04-16T09:12:49.690Z,16.58
2023-04-16T09:17:51.764Z,16.08
2023-04-16T09:22:53.325Z,16.35
2023-04-16T09:27:54.867Z,16.40
2023-04-16T09:33:24.304Z,16.10
2023-04-16T09:38:26.592Z,15.50
2023-04-16T09:43:28.116Z,14.13
2023-04-16T09:48:29.936Z,15.15
2023-04-16T09:53:31.580Z,15.27
2023-04-16T09:58:35.210Z,15.27
2023-04-16T10:03:38.344Z,16.35
2023-04-16T10:08:50.217Z,13.88
2023-04-16T10:13:51.986Z,15.45
2023-04-16T10:18:53.482Z,16.30
2023-04-16T10:23:54.955Z,15.90
2023-04-16T10:28:56.459Z,14.80
2023-04-16T10:33:57.953Z,17.88
2023-04-16T10:38:59.637Z,15.23
2023-04-16T10:44:09.893Z,14.48
2023-04-16T10:49:16.110Z,14.77
2023-04-16T10:54:17.430Z,16.05
2023-04-16T10:59:22.452Z,16.17
2023-04-16T11:04:23.833Z,14.85
2023-04-16T11:09:47.591Z,13.40
2023-04-16T11:14:51.131Z,14.05
2023-04-16T11:19:53.689Z,15.38
2023-04-16T11:24:56.236Z,15.23
2023-04-16T11:30:02.141Z,14.82
2023-04-16T11:35:05.806Z,14.25
2023-04-16T11:40:08.169Z,15.30
2023-04-16T11:45:10.928Z,15.57
2023-04-16T11:50:30.458Z,14.40
2023-04-16T11:55:31.937Z,15.35
2023-04-16T12:00:35.300Z,16.05
2023-04-16T12:05:38.957Z,14.82
2023-04-16T12:10:53.638Z,16.48
2023-04-16T12:15:56.064Z,16.10
2023-04-16T12:26:02.133Z,14.98
2023-04-16T12:31:04.010Z,14.20
2023-04-16T12:36:18.744Z,15.90
2023-04-16T12:41:20.492Z,13.85
2023-04-16T12:46:21.997Z,14.15
2023-04-16T12:51:23.640Z,14.30
2023-04-16T12:56:25.112Z,15.15
2023-04-16T13:01:26.608Z,15.27
2023-04-16T13:06:28.098Z,15.93
2023-04-16T13:11:29.573Z,15.77
2023-04-16T13:16:31.185Z,20.63
2023-04-16T13:21:33.315Z,13.73
2023-04-16T13:26:34.777Z,14.52
2023-04-16T13:31:36.248Z,15.48
2023-04-16T13:36:37.754Z,16.90
2023-04-16T13:41:39.254Z,15.60
2023-04-16T13:46:43.501Z,15.23
2023-04-16T13:51:45.054Z,14.10
2023-04-16T13:56:46.520Z,15.85
2023-04-16T14:01:47.977Z,13.63
2023-04-16T14:06:49.707Z,14.88
2023-04-16T14:11:51.180Z,16.83
2023-04-16T14:16:54.693Z,16.55
2023-04-16T14:21:56.172Z,15.25
2023-04-16T14:26:57.622Z,15.02
2023-04-16T14:31:59.133Z,15.77
2023-04-16T14:37:00.735Z,16.20
2023-04-16T14:42:02.402Z,14.93
2023-04-16T14:47:03.903Z,13.77
2023-04-16T14:52:05.788Z,15.02
2023-04-16T14:57:07.337Z,14.38
2023-04-16T15:02:09.983Z,16.20
2023-04-16T15:07:11.534Z,16.25
2023-04-16T15:12:13.051Z,14.88
2023-04-16T15:17:14.544Z,14.55
2023-04-16T15:22:16.705Z,14.93
2023-04-16T15:27:19.207Z,15.55
2023-04-16T15:37:22.218Z,16.17
2023-04-16T15:42:23.963Z,15.05
2023-04-16T15:47:25.565Z,19.55
2023-04-16T15:52:27.128Z,15.50
2023-04-16T15:57:28.600Z,15.43
2023-04-16T16:02:30.583Z,12.77
2023-04-16T16:07:32.193Z,13.65
2023-04-16T16:12:33.711Z,13.95
2023-04-16T16:17:35.206Z,16.85
2023-04-16T16:22:38.095Z,13.57
2023-04-16T16:27:40.544Z,12.63
2023-04-16T16:37:45.588Z,14.80
2023-04-16T16:42:47.091Z,13.32
2023-04-16T16:47:49.684Z,15.43
2023-04-16T16:52:51.460Z,14.65
2023-04-16T16:57:53.098Z,12.82
2023-04-16T17:02:54.745Z,13.90
2023-04-16T17:07:56.284Z,13.02
2023-04-16T17:12:57.806Z,13.95
2023-04-16T17:17:59.293Z,13.43
2023-04-16T17:23:00.821Z,13.55
2023-04-16T17:28:02.759Z,12.65
2023-04-16T17:33:04.660Z,12.18
2023-04-16T17:38:06.279Z,13.95
2023-04-16T17:43:07.745Z,12.32
2023-04-16T17:48:09.310Z,12.35
2023-04-16T17:53:10.956Z,13.80
2023-04-16T17:58:12.416Z,12.65
2023-04-16T18:03:14.780Z,12.25
2023-04-16T18:08:16.394Z,13.43
2023-04-16T18:13:18.026Z,11.50
2023-04-16T18:18:20.521Z,12.98
2023-04-16T18:23:22.137Z,12.80
2023-04-16T18:28:24.576Z,12.77
2023-04-16T18:33:52.564Z,11.70
2023-04-16T18:38:59.934Z,11.40
2023-04-16T18:44:02.902Z,12.45
2023-04-16T18:49:04.356Z,11.63
2023-04-16T18:54:05.844Z,11.02
2023-04-16T18:59:07.373Z,11.55
2023-04-16T19:04:08.907Z,12.93
2023-04-16T19:09:11.569Z,12.45
2023-04-16T19:14:13.262Z,11.65
2023-04-16T19:19:14.804Z,12.25
2023-04-16T19:24:16.579Z,13.30
2023-04-16T19:29:18.073Z,12.93
2023-04-16T19:34:19.576Z,12.50
2023-04-16T19:39:21.073Z,11.98
2023-04-16T19:44:23.130Z,12.98
2023-04-16T19:49:27.426Z,12.68
2023-04-16T19:54:29.168Z,12.23
2023-04-16T19:59:32.135Z,12.93
2023-04-16T20:04:34.435Z,11.82
2023-04-16T20:09:35.985Z,12.30
2023-04-16T20:14:37.716Z,11.30
2023-04-16T20:19:39.240Z,13.73
2023-04-16T20:24:41.487Z,11.48
2023-04-16T20:29:43.008Z,12.40
2023-04-16T20:34:44.466Z,12.55
2023-04-16T20:39:46.747Z,11.10
2023-04-16T20:44:55.661Z,10.90
2023-04-16T20:49:58.106Z,11.32
2023-04-16T20:54:59.579Z,11.63
2023-04-16T21:00:01.058Z,11.50
2023-04-16T21:05:02.982Z,11.40
2023-04-16T21:10:05.058Z,10.98
2023-04-16T21:15:07.242Z,10.98
2023-04-16T21:20:11.839Z,10.15
2023-04-16T21:25:13.348Z,10.25
2023-04-16T21:30:15.106Z,9.95
2023-04-16T21:35:16.575Z,11.15
2023-04-16T21:40:18.038Z,9.82
2023-04-16T21:45:19.503Z,9.75
2023-04-16T21:50:20.992Z,10.20
2023-04-16T21:55:22.648Z,9.60
2023-04-16T22:00:24.149Z,9.73
2023-04-16T22:05:26.040Z,9.27
2023-04-16T22:10:27.540Z,8.93
2023-04-16T22:15:29.148Z,9.65
2023-04-16T22:20:30.705Z,9.73
2023-04-16T22:25:32.175Z,8.75
2023-04-16T22:30:33.649Z,10.63
2023-04-16T22:35:35.943Z,11.73
2023-04-16T22:40:37.482Z,9.95
2023-04-16T22:45:39.031Z,10.18
2023-04-16T22:50:41.296Z,10.70
2023-04-16T22:55:42.804Z,10.65
2023-04-16T23:00:44.268Z,9.48
2023-04-16T23:05:45.939Z,8.90
2023-04-16T23:10:47.414Z,10.65
2023-04-16T23:15:48.950Z,10.95
2023-04-16T23:20:51.882Z,9.82
2023-04-16T23:25:53.722Z,9.77
2023-04-16T23:30:55.258Z,11.20
2023-04-16T23:35:56.731Z,10.50
2023-04-16T23:40:58.196Z,10.52
2023-04-16T23:45:59.719Z,10.60
2023-04-16T23:51:01.239Z,10.45
2023-04-16T23:56:02.816Z,11.68
